createdAt,value
2017-10-22T00:00:28.625Z,0
2017-10-22T00:01:38.323Z,0
2017-10-22T00:02:48.387Z,0
2017-10-22T00:03:57.763Z,0
2017-10-22T00:05:07.469Z,0
2017-10-22T00:06:17.164Z,0
2017-10-22T00:07:27.535Z,0
2017-10-22T00:08:36.904Z,0
2017-10-22T00:09:46.661Z,0
2017-10-22T00:10:56.373Z,0
2017-10-22T00:12:06.399Z,0
2017-10-22T00:13:16.427Z,0
2017-10-22T00:14:26.120Z,0
2017-10-22T00:15:36.159Z,0
2017-10-22T00:16:45.849Z,0
2017-10-22T00:17:55.541Z,0
2017-10-22T00:19:05.226Z,0
2017-10-22T00:20:15.257Z,0
2017-10-22T00:21:24.617Z,0
2017-10-22T00:22:34.313Z,0
2017-10-22T00:23:43.680Z,0
2017-10-22T00:24:53.370Z,0
2017-10-22T00:26:03.723Z,0
2017-10-22T00:27:13.407Z,0
2017-10-22T00:28:23.431Z,0
2017-10-22T00:29:32.775Z,0
2017-10-22T00:30:43.157Z,0
2017-10-22T00:31:52.849Z,0
2017-10-22T00:33:02.195Z,0
2017-10-22T00:34:12.240Z,0
2017-10-22T00:35:22.267Z,0
2017-10-22T00:36:31.963Z,0
2017-10-22T00:37:41.647Z,0
2017-10-22T00:38:51.684Z,0
2017-10-22T00:40:01.375Z,0
2017-10-22T00:41:11.061Z,0
2017-10-22T00:42:21.086Z,0
2017-10-22T00:43:31.452Z,0
2017-10-22T00:44:41.483Z,0
2017-10-22T00:45:51.515Z,0
2017-10-22T00:47:01.864Z,0
2017-10-22T00:48:11.925Z,0
2017-10-22T00:49:21.953Z,0
2017-10-22T00:50:31.638Z,0
2017-10-22T00:51:41.654Z,0
2017-10-22T00:52:51.680Z,0
2017-10-22T00:54:01.383Z,0
2017-10-22T00:55:11.743Z,0
2017-10-22T00:56:20.751Z,0
2017-10-22T00:57:30.100Z,0
2017-10-22T00:58:39.796Z,0
2017-10-22T00:59:49.498Z,0
2017-10-22T01:00:59.193Z,0
2017-10-22T01:02:08.883Z,0
2017-10-22T01:03:18.912Z,0
2017-10-22T01:04:28.947Z,0
2017-10-22T01:05:38.643Z,0
2017-10-22T01:06:49.017Z,0
2017-10-22T01:07:59.041Z,0
2017-10-22T01:09:08.725Z,0
2017-10-22T01:10:18.764Z,0
2017-10-22T01:11:28.795Z,0
2017-10-22T01:12:38.463Z,0
2017-10-22T01:13:48.814Z,0
2017-10-22T01:14:58.514Z,0
2017-10-22T01:16:08.890Z,0
2017-10-22T01:17:18.921Z,0
2017-10-22T01:18:29.284Z,0
2017-10-22T01:19:39.304Z,0
2017-10-22T01:20:48.999Z,0
2017-10-22T01:21:57.679Z,0
2017-10-22T01:23:08.156Z,0
2017-10-22T01:24:19.862Z,0
2017-10-22T01:25:29.924Z,0
2017-10-22T01:26:39.490Z,0
2017-10-22T01:27:49.752Z,0
2017-10-22T01:28:59.796Z,0
2017-10-22T01:30:10.072Z,0
2017-10-22T01:31:20.661Z,0
2017-10-22T01:32:30.673Z,0
2017-10-22T01:33:45.495Z,0
2017-10-22T01:34:57.420Z,0
2017-10-22T01:36:07.601Z,0
2017-10-22T01:37:18.173Z,0
2017-10-22T01:38:27.525Z,0
2017-10-22T01:39:38.128Z,0
2017-10-22T01:40:48.307Z,0
2017-10-22T01:41:57.973Z,0
2017-10-22T01:43:08.241Z,0
2017-10-22T01:44:18.126Z,0
2017-10-22T01:45:27.469Z,0
2017-10-22T01:46:38.009Z,0
2017-10-22T01:47:47.206Z,0
2017-10-22T01:48:56.563Z,0
2017-10-22T01:50:06.784Z,0
2017-10-22T01:51:16.717Z,0
2017-10-22T01:52:27.067Z,0
2017-10-22T01:53:37.670Z,0
2017-10-22T01:54:48.221Z,0
2017-10-22T01:55:58.569Z,0
2017-10-22T01:57:08.805Z,0
2017-10-22T01:58:18.695Z,0
2017-10-22T01:59:28.377Z,0
2017-10-22T02:00:37.965Z,0
2017-10-22T02:01:47.844Z,0
2017-10-22T02:02:57.879Z,0
2017-10-22T02:04:11.829Z,0
2017-10-22T02:05:22.935Z,0
2017-10-22T02:06:32.992Z,0
2017-10-22T02:07:43.435Z,0
2017-10-22T02:08:53.455Z,0
2017-10-22T02:10:03.467Z,0
2017-10-22T02:11:12.813Z,0
2017-10-22T02:12:22.503Z,0
2017-10-22T02:13:32.849Z,0
2017-10-22T02:14:42.195Z,0
2017-10-22T02:15:52.541Z,0
2017-10-22T02:17:01.885Z,0
2017-10-22T02:18:11.227Z,0
2017-10-22T02:19:20.904Z,0
2017-10-22T02:20:30.936Z,0
2017-10-22T02:21:40.956Z,0
2017-10-22T02:22:50.294Z,0
2017-10-22T02:23:59.970Z,0
2017-10-22T02:25:09.985Z,0
2017-10-22T02:26:20.012Z,0
2017-10-22T02:27:29.704Z,0
2017-10-22T02:28:39.379Z,0
2017-10-22T02:29:48.727Z,0
2017-10-22T02:30:58.744Z,0
2017-10-22T02:32:08.422Z,0
2017-10-22T02:33:18.093Z,0
2017-10-22T02:34:28.139Z,0
2017-10-22T02:35:37.476Z,0
2017-10-22T02:36:47.155Z,0
2017-10-22T02:37:56.504Z,0
2017-10-22T02:39:06.515Z,0
2017-10-22T02:40:16.529Z,0
2017-10-22T02:41:26.209Z,0
2017-10-22T02:42:35.214Z,0
2017-10-22T02:43:44.554Z,0
2017-10-22T02:44:53.895Z,0
2017-10-22T02:46:03.574Z,0
2017-10-22T02:47:12.923Z,0
2017-10-22T02:48:23.281Z,0
2017-10-22T02:49:32.961Z,0
2017-10-22T02:50:42.977Z,0
2017-10-22T02:51:52.656Z,0
2017-10-22T02:53:03.009Z,0
2017-10-22T02:54:12.696Z,0
2017-10-22T02:55:23.055Z,0
2017-10-22T02:56:33.414Z,0
2017-10-22T02:57:43.774Z,0
2017-10-22T02:58:53.800Z,0
2017-10-22T03:00:03.818Z,0
2017-10-22T03:01:13.833Z,0
2017-10-22T03:02:23.854Z,0
2017-10-22T03:03:33.537Z,0
2017-10-22T03:04:43.556Z,0
2017-10-22T03:05:52.899Z,0
2017-10-22T03:07:02.241Z,0
2017-10-22T03:08:12.263Z,0
2017-10-22T03:09:21.938Z,0
2017-10-22T03:10:31.957Z,0
2017-10-22T03:11:41.990Z,0
2017-10-22T03:12:51.665Z,0
2017-10-22T03:14:01.690Z,0
2017-10-22T03:15:11.029Z,0
2017-10-22T03:16:21.035Z,0
2017-10-22T03:17:30.389Z,0
2017-10-22T03:18:40.075Z,0
2017-10-22T03:19:50.094Z,0
2017-10-22T03:20:59.767Z,0
2017-10-22T03:22:10.111Z,0
2017-10-22T03:23:20.127Z,0
2017-10-22T03:24:29.815Z,0
2017-10-22T03:25:39.174Z,0
2017-10-22T03:26:48.516Z,0
2017-10-22T03:27:58.543Z,0
2017-10-22T03:29:08.567Z,0
2017-10-22T03:30:18.939Z,0
2017-10-22T03:31:29.315Z,0
2017-10-22T03:32:38.994Z,0
2017-10-22T03:33:48.677Z,0
2017-10-22T03:34:58.700Z,0
2017-10-22T03:36:08.376Z,0
2017-10-22T03:37:18.061Z,0
2017-10-22T03:38:28.076Z,0
2017-10-22T03:39:37.758Z,0
2017-10-22T03:40:47.769Z,0
2017-10-22T03:41:57.447Z,0
2017-10-22T03:43:07.123Z,0
2017-10-22T03:44:17.134Z,0
2017-10-22T03:45:27.145Z,0
2017-10-22T03:46:36.838Z,0
2017-10-22T03:47:46.853Z,0
2017-10-22T03:48:56.865Z,0
2017-10-22T03:50:06.205Z,0
2017-10-22T03:51:16.559Z,0
2017-10-22T03:52:26.580Z,0
2017-10-22T03:53:36.256Z,0
2017-10-22T03:54:46.268Z,0
2017-10-22T03:55:56.283Z,0
2017-10-22T03:57:05.957Z,0
2017-10-22T03:58:15.991Z,0
2017-10-22T03:59:26.021Z,0
2017-10-22T04:00:36.034Z,0
2017-10-22T04:01:46.379Z,0
2017-10-22T04:02:56.731Z,0
2017-10-22T04:04:07.073Z,0
2017-10-22T04:05:16.746Z,0
2017-10-22T04:06:26.098Z,0
2017-10-22T04:07:36.448Z,0
2017-10-22T04:08:46.130Z,0
2017-10-22T04:09:56.131Z,0
2017-10-22T04:11:05.473Z,0
2017-10-22T04:12:14.141Z,0
2017-10-22T04:13:23.505Z,0
2017-10-22T04:14:33.533Z,0
2017-10-22T04:15:42.878Z,0
2017-10-22T04:16:53.225Z,0
2017-10-22T04:18:03.230Z,0
2017-10-22T04:19:13.594Z,0
2017-10-22T04:20:23.654Z,0
2017-10-22T04:21:33.331Z,0
2017-10-22T04:22:43.017Z,0
2017-10-22T04:23:52.689Z,0
2017-10-22T04:25:02.388Z,0
2017-10-22T04:26:12.424Z,0
2017-10-22T04:27:21.769Z,0
2017-10-22T04:28:31.791Z,0
2017-10-22T04:29:41.469Z,0
2017-10-22T04:30:51.146Z,0
2017-10-22T04:32:01.186Z,0
2017-10-22T04:33:11.192Z,0
2017-10-22T04:34:21.200Z,0
2017-10-22T04:35:30.542Z,0
2017-10-22T04:36:39.881Z,0
2017-10-22T04:37:50.224Z,0
2017-10-22T04:39:00.245Z,0
2017-10-22T04:40:09.597Z,0
2017-10-22T04:41:18.930Z,0
2017-10-22T04:42:28.611Z,0
2017-10-22T04:43:38.953Z,0
2017-10-22T04:44:48.659Z,0
2017-10-22T04:45:59.014Z,0
2017-10-22T04:47:09.112Z,0
2017-10-22T04:48:18.782Z,0
2017-10-22T04:49:28.469Z,0
2017-10-22T04:50:38.147Z,0
2017-10-22T04:51:48.650Z,0
2017-10-22T04:52:58.656Z,0
2017-10-22T04:54:09.006Z,0
2017-10-22T04:55:18.716Z,0
2017-10-22T04:56:28.762Z,0
2017-10-22T04:57:38.779Z,0
2017-10-22T04:58:48.454Z,0
2017-10-22T04:59:58.463Z,0
2017-10-22T05:01:07.133Z,0
2017-10-22T05:02:17.163Z,0
2017-10-22T05:03:27.173Z,0
2017-10-22T05:04:37.179Z,0
2017-10-22T05:05:46.849Z,0
2017-10-22T05:06:56.521Z,0
2017-10-22T05:08:06.541Z,0
2017-10-22T05:09:16.555Z,0
2017-10-22T05:10:26.899Z,0
2017-10-22T05:11:36.571Z,0
2017-10-22T05:12:46.950Z,0
2017-10-22T05:13:56.297Z,0
2017-10-22T05:15:05.296Z,0
2017-10-22T05:16:14.636Z,0
2017-10-22T05:17:24.651Z,0
2017-10-22T05:18:33.682Z,0
2017-10-22T05:19:43.350Z,0
2017-10-22T05:20:52.699Z,0
2017-10-22T05:22:03.047Z,0
2017-10-22T05:23:12.383Z,0
2017-10-22T05:24:22.392Z,0
2017-10-22T05:25:31.740Z,0
2017-10-22T05:26:41.748Z,0
2017-10-22T05:27:50.782Z,0
2017-10-22T05:29:00.479Z,0
2017-10-22T05:30:09.819Z,0
2017-10-22T05:31:19.525Z,0
2017-10-22T05:32:29.552Z,0
2017-10-22T05:33:39.930Z,0
2017-10-22T05:34:49.610Z,0
2017-10-22T05:35:59.284Z,0
2017-10-22T05:37:09.630Z,0
2017-10-22T05:38:18.975Z,0
2017-10-22T05:39:28.985Z,0
2017-10-22T05:40:38.661Z,0
2017-10-22T05:41:48.667Z,0
2017-10-22T05:42:59.103Z,0
2017-10-22T05:44:08.776Z,0
2017-10-22T05:45:18.814Z,0
2017-10-22T05:46:28.823Z,0
2017-10-22T05:47:38.177Z,0
2017-10-22T05:48:48.527Z,0
2017-10-22T05:49:58.196Z,0
2017-10-22T05:51:07.571Z,0
2017-10-22T05:52:17.255Z,0
2017-10-22T05:53:27.287Z,0
2017-10-22T05:54:37.327Z,0
2017-10-22T05:55:46.313Z,0
2017-10-22T05:56:56.663Z,0
2017-10-22T05:58:06.002Z,0
2017-10-22T05:59:15.336Z,0
2017-10-22T06:00:25.369Z,0
2017-10-22T06:01:35.413Z,0
2017-10-22T06:02:44.764Z,0
2017-10-22T06:03:55.120Z,0
2017-10-22T06:05:04.466Z,0
2017-10-22T06:06:14.471Z,0
2017-10-22T06:07:24.474Z,0
2017-10-22T06:08:34.506Z,0
2017-10-22T06:09:44.574Z,0
2017-10-22T06:10:54.915Z,0
2017-10-22T06:12:04.942Z,0
2017-10-22T06:13:14.952Z,0
2017-10-22T06:14:24.630Z,0
2017-10-22T06:15:33.973Z,0
2017-10-22T06:16:44.342Z,0
2017-10-22T06:17:53.783Z,0
2017-10-22T06:19:03.465Z,0
2017-10-22T06:20:13.483Z,0
2017-10-22T06:21:23.502Z,0
2017-10-22T06:22:33.174Z,0
2017-10-22T06:23:43.186Z,0
2017-10-22T06:24:53.203Z,0
2017-10-22T06:26:02.878Z,0
2017-10-22T06:27:12.237Z,0
2017-10-22T06:28:22.251Z,0
2017-10-22T06:29:32.266Z,0
2017-10-22T06:30:41.939Z,0
2017-10-22T06:31:51.973Z,0
2017-10-22T06:33:01.979Z,0
2017-10-22T06:34:12.020Z,0
2017-10-22T06:35:22.038Z,0
2017-10-22T06:36:32.046Z,5
2017-10-22T06:37:41.387Z,5
2017-10-22T06:38:50.718Z,5
2017-10-22T06:40:00.733Z,5
2017-10-22T06:41:10.929Z,5
2017-10-22T06:42:20.643Z,5
2017-10-22T06:43:30.730Z,5
2017-10-22T06:44:41.072Z,5
2017-10-22T06:45:51.429Z,5
2017-10-22T06:47:01.461Z,5
2017-10-22T06:48:10.473Z,5
2017-10-22T06:49:20.162Z,5
2017-10-22T06:50:29.846Z,5
2017-10-22T06:51:39.855Z,5
2017-10-22T06:52:49.535Z,5
2017-10-22T06:53:59.574Z,5
2017-10-22T06:55:08.919Z,10
2017-10-22T06:56:18.600Z,10
2017-10-22T06:57:28.630Z,10
2017-10-22T06:58:38.670Z,10
2017-10-22T06:59:48.349Z,10
2017-10-22T07:00:58.026Z,15
2017-10-22T07:02:07.704Z,15
2017-10-22T07:03:17.733Z,15
2017-10-22T07:04:27.757Z,20
2017-10-22T07:05:38.134Z,25
2017-10-22T07:06:47.652Z,25
2017-10-22T07:07:57.666Z,25
2017-10-22T07:09:07.340Z,30
2017-10-22T07:10:17.349Z,35
2017-10-22T07:11:26.691Z,35
2017-10-22T07:12:36.438Z,25
2017-10-22T07:13:46.105Z,25
2017-10-22T07:14:55.672Z,20
2017-10-22T07:16:05.844Z,20
2017-10-22T07:17:15.312Z,15
2017-10-22T07:18:28.805Z,15
2017-10-22T07:19:41.019Z,20
2017-10-22T07:20:50.696Z,20
2017-10-22T07:22:01.265Z,20
2017-10-22T07:23:11.173Z,25
2017-10-22T07:24:21.299Z,25
2017-10-22T07:25:31.213Z,25
2017-10-22T07:26:41.279Z,20
2017-10-22T07:27:53.951Z,25
2017-10-22T07:29:07.664Z,25
2017-10-22T07:30:17.733Z,25
2017-10-22T07:31:27.652Z,25
2017-10-22T07:32:37.894Z,30
2017-10-22T07:33:48.240Z,25
2017-10-22T07:34:58.415Z,30
2017-10-22T07:36:08.269Z,25
2017-10-22T07:37:18.627Z,25
2017-10-22T07:38:29.200Z,25
2017-10-22T07:39:39.108Z,25
2017-10-22T07:40:49.499Z,25
2017-10-22T07:41:59.766Z,30
2017-10-22T07:43:09.362Z,30
2017-10-22T07:44:19.381Z,35
2017-10-22T07:45:29.242Z,35
2017-10-22T07:46:39.409Z,35
2017-10-22T07:47:49.773Z,35
2017-10-22T07:49:00.200Z,30
2017-10-22T07:50:10.697Z,30
2017-10-22T07:51:21.042Z,30
2017-10-22T07:52:31.249Z,35
2017-10-22T07:53:41.394Z,35
2017-10-22T07:54:51.293Z,35
2017-10-22T07:56:00.984Z,40
2017-10-22T07:57:10.840Z,50
2017-10-22T07:58:20.717Z,45
2017-10-22T07:59:31.471Z,50
2017-10-22T08:00:41.731Z,50
2017-10-22T08:01:51.832Z,55
2017-10-22T08:03:01.737Z,60
2017-10-22T08:04:12.342Z,60
2017-10-22T08:05:22.748Z,55
2017-10-22T08:06:33.347Z,60
2017-10-22T08:07:43.272Z,60
2017-10-22T08:08:53.284Z,60
2017-10-22T08:10:03.830Z,60
2017-10-22T08:11:14.234Z,60
2017-10-22T08:12:24.335Z,60
2017-10-22T08:13:34.756Z,65
2017-10-22T08:14:43.784Z,65
2017-10-22T08:15:53.596Z,65
2017-10-22T08:17:02.651Z,55
2017-10-22T08:18:12.088Z,55
2017-10-22T08:19:21.439Z,60
2017-10-22T08:20:31.710Z,55
2017-10-22T08:21:41.893Z,60
2017-10-22T08:22:51.773Z,60
2017-10-22T08:24:01.488Z,60
2017-10-22T08:25:11.641Z,55
2017-10-22T08:26:21.892Z,45
2017-10-22T08:27:31.241Z,45
2017-10-22T08:28:41.443Z,45
2017-10-22T08:29:51.029Z,45
2017-10-22T08:31:00.705Z,50
2017-10-22T08:32:10.943Z,50
2017-10-22T08:33:21.457Z,50
2017-10-22T08:34:31.137Z,45
2017-10-22T08:35:40.943Z,40
2017-10-22T08:36:51.139Z,40
2017-10-22T08:38:00.935Z,35
2017-10-22T08:39:10.994Z,30
2017-10-22T08:40:20.026Z,30
2017-10-22T08:41:29.505Z,30
2017-10-22T08:42:39.578Z,25
2017-10-22T08:43:49.270Z,25
2017-10-22T08:44:59.052Z,30
2017-10-22T08:46:08.527Z,30
2017-10-22T08:47:18.537Z,35
2017-10-22T08:48:29.040Z,35
2017-10-22T08:49:38.800Z,30
2017-10-22T08:50:48.892Z,35
2017-10-22T08:51:58.233Z,35
2017-10-22T08:53:08.354Z,35
2017-10-22T08:54:18.348Z,35
2017-10-22T08:55:28.053Z,35
2017-10-22T08:56:37.908Z,35
2017-10-22T08:57:47.097Z,35
2017-10-22T08:58:57.143Z,30
2017-10-22T09:00:06.943Z,30
2017-10-22T09:01:17.090Z,35
2017-10-22T09:02:27.022Z,35
2017-10-22T09:03:36.703Z,35
2017-10-22T09:04:47.171Z,35
2017-10-22T09:05:56.967Z,30
2017-10-22T09:07:07.019Z,30
2017-10-22T09:08:16.796Z,30
2017-10-22T09:09:26.879Z,35
2017-10-22T09:10:36.921Z,35
2017-10-22T09:11:47.273Z,35
2017-10-22T09:12:57.324Z,45
2017-10-22T09:14:06.968Z,45
2017-10-22T09:15:16.649Z,50
2017-10-22T09:16:27.018Z,40
2017-10-22T09:17:36.362Z,45
2017-10-22T09:18:46.178Z,45
2017-10-22T09:19:56.202Z,40
2017-10-22T09:21:06.253Z,40
2017-10-22T09:22:15.039Z,40
2017-10-22T09:23:25.402Z,40
2017-10-22T09:24:35.467Z,35
2017-10-22T09:25:45.862Z,35
2017-10-22T09:26:55.608Z,35
2017-10-22T09:28:05.011Z,30
2017-10-22T09:29:14.522Z,30
2017-10-22T09:30:26.132Z,30
2017-10-22T09:31:36.146Z,30
2017-10-22T09:32:45.485Z,30
2017-10-22T09:33:55.163Z,30
2017-10-22T09:35:05.215Z,35
2017-10-22T09:36:14.617Z,35
2017-10-22T09:37:23.985Z,35
2017-10-22T09:38:34.213Z,40
2017-10-22T09:39:43.767Z,45
2017-10-22T09:40:53.461Z,45
2017-10-22T09:42:04.097Z,45
2017-10-22T09:43:14.676Z,45
2017-10-22T09:44:24.572Z,45
2017-10-22T09:45:34.336Z,40
2017-10-22T09:46:44.963Z,40
2017-10-22T09:47:55.223Z,40
2017-10-22T09:49:05.577Z,40
2017-10-22T09:50:16.141Z,40
2017-10-22T09:51:26.082Z,40
2017-10-22T09:52:36.114Z,40
2017-10-22T09:53:46.373Z,40
2017-10-22T09:54:55.245Z,35
2017-10-22T09:56:04.595Z,35
2017-10-22T09:57:15.164Z,35
2017-10-22T09:58:24.789Z,35
2017-10-22T09:59:34.854Z,35
2017-10-22T10:00:44.742Z,35
2017-10-22T10:01:54.981Z,35
2017-10-22T10:03:05.343Z,35
2017-10-22T10:04:15.626Z,40
2017-10-22T10:05:26.175Z,40
2017-10-22T10:06:36.182Z,45
2017-10-22T10:07:45.942Z,45
2017-10-22T10:08:55.990Z,40
2017-10-22T10:10:05.667Z,40
2017-10-22T10:11:15.377Z,45
2017-10-22T10:12:25.050Z,50
2017-10-22T10:13:34.721Z,50
2017-10-22T10:14:44.435Z,45
2017-10-22T10:15:54.922Z,45
2017-10-22T10:17:04.827Z,50
2017-10-22T10:18:14.358Z,50
2017-10-22T10:19:24.160Z,50
2017-10-22T10:20:34.357Z,50
2017-10-22T10:21:43.819Z,50
2017-10-22T10:22:54.370Z,45
2017-10-22T10:24:04.929Z,45
2017-10-22T10:25:14.426Z,45
2017-10-22T10:26:24.937Z,50
2017-10-22T10:27:34.830Z,50
2017-10-22T10:28:45.023Z,55
2017-10-22T10:29:55.511Z,60
2017-10-22T10:31:04.972Z,65
2017-10-22T10:32:14.439Z,65
2017-10-22T10:33:23.558Z,65
2017-10-22T10:34:33.452Z,50
2017-10-22T10:35:43.672Z,60
2017-10-22T10:36:54.189Z,60
2017-10-22T10:38:04.010Z,60
2017-10-22T10:39:14.215Z,55
2017-10-22T10:40:24.390Z,60
2017-10-22T10:41:33.848Z,65
2017-10-22T10:42:44.056Z,70
2017-10-22T10:43:54.272Z,60
2017-10-22T10:45:04.153Z,65
2017-10-22T10:46:14.249Z,55
2017-10-22T10:47:24.043Z,55
2017-10-22T10:48:34.569Z,50
2017-10-22T10:49:44.367Z,50
2017-10-22T10:50:54.511Z,50
2017-10-22T10:52:03.975Z,55
2017-10-22T10:53:13.483Z,60
2017-10-22T10:54:23.642Z,60
2017-10-22T10:55:33.807Z,55
2017-10-22T10:56:43.925Z,60
2017-10-22T10:57:53.703Z,60
2017-10-22T10:59:03.181Z,65
2017-10-22T11:00:13.562Z,75
2017-10-22T11:01:24.074Z,75
2017-10-22T11:02:33.944Z,70
2017-10-22T11:03:44.173Z,80
2017-10-22T11:04:54.413Z,70
2017-10-22T11:06:04.218Z,70
2017-10-22T11:07:14.097Z,70
2017-10-22T11:08:24.288Z,75
2017-10-22T11:09:34.141Z,65
2017-10-22T11:10:43.963Z,55
2017-10-22T11:11:54.144Z,45
2017-10-22T11:13:04.017Z,50
2017-10-22T11:14:14.176Z,50
2017-10-22T11:15:24.294Z,50
2017-10-22T11:16:34.205Z,55
2017-10-22T11:17:44.117Z,60
2017-10-22T11:18:54.687Z,55
2017-10-22T11:20:05.167Z,50
2017-10-22T11:21:15.300Z,50
2017-10-22T11:22:25.138Z,45
2017-10-22T11:23:34.257Z,40
2017-10-22T11:24:44.443Z,40
2017-10-22T11:25:54.304Z,45
2017-10-22T11:27:03.776Z,35
2017-10-22T11:28:13.640Z,35
2017-10-22T11:29:23.530Z,35
2017-10-22T11:30:33.223Z,40
2017-10-22T11:31:43.463Z,45
2017-10-22T11:32:53.994Z,55
2017-10-22T11:34:04.013Z,60
2017-10-22T11:35:13.884Z,60
2017-10-22T11:36:23.974Z,55
2017-10-22T11:37:34.046Z,45
2017-10-22T11:38:43.527Z,55
2017-10-22T11:39:54.055Z,65
2017-10-22T11:41:04.270Z,60
2017-10-22T11:42:13.641Z,55
2017-10-22T11:43:23.501Z,40
2017-10-22T11:44:34.108Z,40
2017-10-22T11:45:43.127Z,35
2017-10-22T11:46:53.349Z,45
2017-10-22T11:48:03.267Z,45
2017-10-22T11:49:13.282Z,45
2017-10-22T11:50:22.632Z,40
2017-10-22T11:51:32.306Z,50
2017-10-22T11:52:42.527Z,45
2017-10-22T11:53:52.690Z,45
2017-10-22T11:55:02.584Z,40
2017-10-22T11:56:11.985Z,55
2017-10-22T11:57:22.471Z,75
2017-10-22T11:58:31.908Z,70
2017-10-22T11:59:42.467Z,70
2017-10-22T12:00:52.572Z,75
2017-10-22T12:02:02.670Z,85
2017-10-22T12:03:12.733Z,95
2017-10-22T12:04:23.197Z,105
2017-10-22T12:05:32.873Z,95
2017-10-22T12:06:42.699Z,100
2017-10-22T12:07:52.575Z,105
2017-10-22T12:09:02.410Z,100
2017-10-22T12:10:12.252Z,95
2017-10-22T12:11:21.623Z,95
2017-10-22T12:12:31.472Z,85
2017-10-22T12:13:40.957Z,80
2017-10-22T12:14:50.827Z,85
2017-10-22T12:16:00.506Z,85
2017-10-22T12:17:10.748Z,90
2017-10-22T12:18:20.957Z,95
2017-10-22T12:19:30.362Z,90
2017-10-22T12:20:40.599Z,90
2017-10-22T12:21:50.430Z,80
2017-10-22T12:23:00.335Z,65
2017-10-22T12:24:10.384Z,50
2017-10-22T12:25:20.568Z,45
2017-10-22T12:26:30.136Z,45
2017-10-22T12:27:39.853Z,55
2017-10-22T12:28:50.449Z,35
2017-10-22T12:30:00.306Z,25
2017-10-22T12:31:09.996Z,20
2017-10-22T12:32:19.847Z,25
2017-10-22T12:33:29.048Z,25
2017-10-22T12:34:38.404Z,30
2017-10-22T12:35:48.909Z,45
2017-10-22T12:36:59.159Z,55
2017-10-22T12:38:09.339Z,65
2017-10-22T12:39:19.023Z,75
2017-10-22T12:40:29.253Z,80
2017-10-22T12:41:39.034Z,85
2017-10-22T12:42:48.711Z,90
2017-10-22T12:43:58.958Z,95
2017-10-22T12:45:09.531Z,95
2017-10-22T12:46:19.566Z,95
2017-10-22T12:47:29.470Z,95
2017-10-22T12:48:39.768Z,95
2017-10-22T12:49:49.159Z,100
2017-10-22T12:50:59.062Z,90
2017-10-22T12:52:09.677Z,85
2017-10-22T12:53:19.717Z,85
2017-10-22T12:54:30.361Z,85
2017-10-22T12:55:40.648Z,80
2017-10-22T12:56:50.671Z,80
2017-10-22T12:58:01.228Z,75
2017-10-22T12:59:11.445Z,75
2017-10-22T13:00:20.813Z,75
2017-10-22T13:01:30.679Z,75
2017-10-22T13:02:40.973Z,80
2017-10-22T13:03:51.050Z,80
2017-10-22T13:05:01.680Z,75
2017-10-22T13:06:11.847Z,80
2017-10-22T13:07:21.552Z,80
2017-10-22T13:08:31.807Z,80
2017-10-22T13:09:41.827Z,80
2017-10-22T13:10:51.507Z,85
2017-10-22T13:12:01.848Z,85
2017-10-22T13:13:11.525Z,85
2017-10-22T13:14:21.532Z,90
2017-10-22T13:15:31.556Z,95
2017-10-22T13:16:41.571Z,100
2017-10-22T13:17:51.612Z,100
2017-10-22T13:19:01.328Z,105
2017-10-22T13:20:11.370Z,100
2017-10-22T13:21:20.756Z,95
2017-10-22T13:22:30.137Z,90
2017-10-22T13:23:39.826Z,80
2017-10-22T13:24:49.557Z,65
2017-10-22T13:25:59.963Z,45
2017-10-22T13:27:09.976Z,35
2017-10-22T13:28:19.040Z,40
2017-10-22T13:29:28.390Z,45
2017-10-22T13:30:37.744Z,45
2017-10-22T13:31:47.141Z,50
2017-10-22T13:32:56.820Z,50
2017-10-22T13:34:06.506Z,60
2017-10-22T13:35:16.199Z,60
2017-10-22T13:36:25.888Z,60
2017-10-22T13:37:35.365Z,65
2017-10-22T13:38:45.889Z,65
2017-10-22T13:39:56.006Z,65
2017-10-22T13:41:05.353Z,65
2017-10-22T13:42:15.585Z,65
2017-10-22T13:43:25.799Z,65
2017-10-22T13:44:35.818Z,75
2017-10-22T13:45:45.966Z,70
2017-10-22T13:46:56.070Z,80
2017-10-22T13:48:06.098Z,85
2017-10-22T13:49:15.686Z,90
2017-10-22T13:50:25.765Z,95
2017-10-22T13:51:35.997Z,95
2017-10-22T13:52:46.351Z,100
2017-10-22T13:53:56.944Z,100
2017-10-22T13:55:07.178Z,105
2017-10-22T13:56:17.575Z,105
2017-10-22T13:57:27.488Z,105
2017-10-22T13:58:37.423Z,100
2017-10-22T13:59:46.828Z,100
2017-10-22T14:00:57.114Z,100
2017-10-22T14:02:06.607Z,100
2017-10-22T14:03:16.296Z,100
2017-10-22T14:04:25.790Z,95
2017-10-22T14:05:35.704Z,100
2017-10-22T14:06:45.938Z,95
2017-10-22T14:07:55.287Z,95
2017-10-22T14:09:05.151Z,100
2017-10-22T14:10:14.949Z,100
2017-10-22T14:11:24.631Z,95
2017-10-22T14:12:34.857Z,95
2017-10-22T14:13:45.416Z,95
2017-10-22T14:14:55.227Z,95
2017-10-22T14:16:05.654Z,95
2017-10-22T14:17:15.148Z,90
2017-10-22T14:18:25.651Z,85
2017-10-22T14:19:36.006Z,85
2017-10-22T14:20:45.920Z,85
2017-10-22T14:21:56.068Z,85
2017-10-22T14:23:05.912Z,85
2017-10-22T14:24:15.331Z,90
2017-10-22T14:25:25.052Z,95
2017-10-22T14:26:35.367Z,95
2017-10-22T14:27:45.088Z,95
2017-10-22T14:28:55.477Z,90
2017-10-22T14:30:04.827Z,90
2017-10-22T14:31:14.537Z,85
2017-10-22T14:32:23.561Z,70
2017-10-22T14:33:33.582Z,80
2017-10-22T14:34:43.304Z,80
2017-10-22T14:35:52.988Z,75
2017-10-22T14:37:03.014Z,70
2017-10-22T14:38:13.491Z,75
2017-10-22T14:39:23.512Z,75
2017-10-22T14:40:33.202Z,70
2017-10-22T14:41:43.237Z,65
2017-10-22T14:42:53.270Z,60
2017-10-22T14:44:03.336Z,60
2017-10-22T14:45:13.742Z,55
2017-10-22T14:46:23.760Z,45
2017-10-22T14:47:33.924Z,40
2017-10-22T14:48:44.040Z,35
2017-10-22T14:49:54.499Z,30
2017-10-22T14:51:04.511Z,30
2017-10-22T14:52:13.871Z,30
2017-10-22T14:53:23.564Z,30
2017-10-22T14:54:33.032Z,30
2017-10-22T14:55:43.449Z,25
2017-10-22T14:56:53.568Z,25
2017-10-22T14:58:03.578Z,25
2017-10-22T14:59:13.288Z,30
2017-10-22T15:00:23.902Z,30
2017-10-22T15:01:34.047Z,30
2017-10-22T15:02:44.422Z,30
2017-10-22T15:04:26.215Z,25
2017-10-22T15:05:36.268Z,25
2017-10-22T15:06:46.381Z,25
2017-10-22T15:07:55.736Z,25
2017-10-22T15:09:05.434Z,25
2017-10-22T15:10:15.516Z,25
2017-10-22T15:11:25.258Z,25
2017-10-22T15:12:35.347Z,25
2017-10-22T15:13:44.357Z,25
2017-10-22T15:14:53.702Z,20
2017-10-22T15:16:03.413Z,20
2017-10-22T15:17:13.086Z,20
2017-10-22T15:18:22.792Z,20
2017-10-22T15:19:32.808Z,20
2017-10-22T15:20:42.822Z,25
2017-10-22T15:21:52.833Z,25
2017-10-22T15:23:02.175Z,25
2017-10-22T15:24:12.187Z,25
2017-10-22T15:25:21.890Z,20
2017-10-22T15:26:31.574Z,15
2017-10-22T15:27:41.934Z,15
2017-10-22T15:28:51.952Z,15
2017-10-22T15:30:01.294Z,15
2017-10-22T15:31:10.980Z,15
2017-10-22T15:32:20.986Z,15
2017-10-22T15:33:30.778Z,20
2017-10-22T15:34:40.936Z,15
2017-10-22T15:35:49.966Z,15
2017-10-22T15:37:00.351Z,15
2017-10-22T15:38:10.045Z,15
2017-10-22T15:39:19.837Z,15
2017-10-22T15:40:29.852Z,15
2017-10-22T15:41:39.871Z,15
2017-10-22T15:42:49.564Z,15
2017-10-22T15:43:59.572Z,10
2017-10-22T15:45:09.629Z,10
2017-10-22T15:46:19.986Z,5
2017-10-22T15:47:29.009Z,5
2017-10-22T15:48:38.687Z,5
2017-10-22T15:49:48.746Z,5
2017-10-22T15:50:58.448Z,5
2017-10-22T15:52:08.567Z,5
2017-10-22T15:53:18.598Z,0
2017-10-22T15:54:28.332Z,0
2017-10-22T15:55:38.015Z,5
2017-10-22T15:56:48.034Z,5
2017-10-22T15:57:58.069Z,5
2017-10-22T15:59:08.417Z,5
2017-10-22T16:00:18.108Z,5
2017-10-22T16:01:28.155Z,5
2017-10-22T16:02:38.176Z,5
2017-10-22T16:03:48.196Z,5
2017-10-22T16:04:58.211Z,5
2017-10-22T16:06:08.229Z,5
2017-10-22T16:07:18.277Z,5
2017-10-22T16:08:27.961Z,5
2017-10-22T16:09:37.653Z,5
2017-10-22T16:10:47.671Z,5
2017-10-22T16:11:57.364Z,5
2017-10-22T16:13:07.054Z,5
2017-10-22T16:14:17.069Z,5
2017-10-22T16:15:26.450Z,5
2017-10-22T16:16:36.555Z,5
2017-10-22T16:17:46.909Z,0
2017-10-22T16:18:56.609Z,0
2017-10-22T16:20:06.413Z,0
2017-10-22T16:21:16.182Z,0
2017-10-22T16:22:25.880Z,0
2017-10-22T16:23:36.228Z,0
2017-10-22T16:24:46.263Z,0
2017-10-22T16:25:55.627Z,0
2017-10-22T16:27:05.675Z,0
2017-10-22T16:28:15.373Z,0
2017-10-22T16:29:25.459Z,0
2017-10-22T16:30:35.494Z,0
2017-10-22T16:31:44.858Z,0
2017-10-22T16:32:54.541Z,0
2017-10-22T16:34:03.913Z,0
2017-10-22T16:35:13.985Z,0
2017-10-22T16:36:24.027Z,0
2017-10-22T16:37:33.779Z,0
2017-10-22T16:38:43.868Z,0
2017-10-22T16:39:53.360Z,0
2017-10-22T16:41:03.747Z,0
2017-10-22T16:42:13.316Z,0
2017-10-22T16:43:23.111Z,0
2017-10-22T16:44:32.471Z,0
2017-10-22T16:45:42.748Z,0
2017-10-22T16:46:53.362Z,0
2017-10-22T16:48:03.733Z,0
2017-10-22T16:49:13.932Z,0
2017-10-22T16:50:23.821Z,0
2017-10-22T16:51:33.852Z,0
2017-10-22T16:52:44.333Z,0
2017-10-22T16:53:53.712Z,0